Crater Lake, Oregon
Current Conditions -  °F | °C
As of 10:53 PM on Saturday 25 Oct 2014 (Local Time) from KLMT Reporting Station
Light Rain Light Rain  
Wind Chill: 38°   Ceiling: 2800
Heat Index: 42°   Visibility: 10mi
Dew Point: 38°   Wind: 6mph
Humidity: 85%   Direction: 280°W
Pressure: 30.03"   Gusts: NA
Location:  42.58°N, 121.86°W
Report Text: KLMT 260553Z AUTO 28005KT 10SM -RA SCT023 BKN028 OVC039 06/03 A3003 RMK AO2 SLP158 P0002 60010 T00560033 10089 20050 51022
Loading
Personal Weather Stations






























Interactive Weather Map New forecast layout! Learn more

10-Day Weather Forecast

Advertisements
Track Severe Weather on mobile